sensor_id;sensor_type;location;lat;lon;timestamp;temperature;humidity
24035;DHT22;12242;50.952;4.678;2023-02-01T00:01:30;8.10;99.90
24035;DHT22;12242;50.952;4.678;2023-02-01T00:04:00;8.10;99.90
24035;DHT22;12242;50.952;4.678;2023-02-01T00:06:27;8.20;99.90
24035;DHT22;12242;50.952;4.678;2023-02-01T00:08:55;8.10;99.90
24035;DHT22;12242;50.952;4.678;2023-02-01T00:11:23;8.10;99.90
24035;DHT22;12242;50.952;4.678;2023-02-01T00:13:51;8.20;99.90
24035;DHT22;12242;50.952;4.678;2023-02-01T00:16:23;8.20;99.90
24035;DHT22;12242;50.952;4.678;2023-02-01T00:18:52;8.20;99.90
24035;DHT22;12242;50.952;4.678;2023-02-01T00:21:22;8.30;99.90
24035;DHT22;12242;50.952;4.678;2023-02-01T00:23:52;8.20;99.90
24035;DHT22;12242;50.952;4.678;2023-02-01T00:26:25;8.10;99.90
24035;DHT22;12242;50.952;4.678;2023-02-01T00:28:55;8.00;99.90
24035;DHT22;12242;50.952;4.678;2023-02-01T00:31:23;8.00;99.90
24035;DHT22;12242;50.952;4.678;2023-02-01T00:33:50;8.00;99.90
24035;DHT22;12242;50.952;4.678;2023-02-01T00:36:20;8.10;99.90
24035;DHT22;12242;50.952;4.678;2023-02-01T00:38:50;8.20;99.90
24035;DHT22;12242;50.952;4.678;2023-02-01T00:41:19;8.30;99.90
24035;DHT22;12242;50.952;4.678;2023-02-01T00:43:47;8.40;99.90
24035;DHT22;12242;50.952;4.678;2023-02-01T00:46:19;8.40;99.90
24035;DHT22;12242;50.952;4.678;2023-02-01T00:48:46;8.50;99.90
24035;DHT22;12242;50.952;4.678;2023-02-01T00:51:20;8.40;99.90
24035;DHT22;12242;50.952;4.678;2023-02-01T00:53:48;8.50;99.90
24035;DHT22;12242;50.952;4.678;2023-02-01T00:56:17;8.40;99.90
24035;DHT22;12242;50.952;4.678;2023-02-01T00:58:45;8.50;99.90
24035;DHT22;12242;50.952;4.678;2023-02-01T01:03:44;8.60;99.90
24035;DHT22;12242;50.952;4.678;2023-02-01T01:06:16;8.60;99.90
24035;DHT22;12242;50.952;4.678;2023-02-01T01:08:47;8.60;99.90
24035;DHT22;12242;50.952;4.678;2023-02-01T01:11:19;8.50;99.90
24035;DHT22;12242;50.952;4.678;2023-02-01T01:13:51;8.60;99.90
24035;DHT22;12242;50.952;4.678;2023-02-01T01:16:22;8.60;99.90
24035;DHT22;12242;50.952;4.678;2023-02-01T01:18:50;8.50;99.90
24035;DHT22;12242;50.952;4.678;2023-02-01T01:21:20;8.50;99.90
24035;DHT22;12242;50.952;4.678;2023-02-01T01:23:47;8.40;99.90
24035;DHT22;12242;50.952;4.678;2023-02-01T01:26:26;8.30;99.90
24035;DHT22;12242;50.952;4.678;2023-02-01T01:28:55;8.20;99.90
24035;DHT22;12242;50.952;4.678;2023-02-01T01:31:24;8.10;99.90
24035;DHT22;12242;50.952;4.678;2023-02-01T01:33:53;8.00;99.90
24035;DHT22;12242;50.952;4.678;2023-02-01T01:36:25;8.00;99.90
24035;DHT22;12242;50.952;4.678;2023-02-01T01:38:58;8.00;99.90
24035;DHT22;12242;50.952;4.678;2023-02-01T01:41:29;8.00;99.90
24035;DHT22;12242;50.952;4.678;2023-02-01T01:44:00;8.10;99.90
24035;DHT22;12242;50.952;4.678;2023-02-01T01:46:33;8.10;99.90
24035;DHT22;12242;50.952;4.678;2023-02-01T01:51:46;8.10;99.90
24035;DHT22;12242;50.952;4.678;2023-02-01T01:54:37;8.00;99.90
24035;DHT22;12242;50.952;4.678;2023-02-01T01:57:11;8.00;99.90
24035;DHT22;12242;50.952;4.678;2023-02-01T01:59:45;7.90;99.90
24035;DHT22;12242;50.952;4.678;2023-02-01T02:02:13;7.90;99.90
24035;DHT22;12242;50.952;4.678;2023-02-01T02:04:43;7.90;99.90
24035;DHT22;12242;50.952;4.678;2023-02-01T02:07:16;7.90;99.90
24035;DHT22;12242;50.952;4.678;2023-02-01T02:09:44;7.90;99.90
24035;DHT22;12242;50.952;4.678;2023-02-01T02:12:28;7.90;99.90
24035;DHT22;12242;50.952;4.678;2023-02-01T02:14:56;7.80;99.90
24035;DHT22;12242;50.952;4.678;2023-02-01T02:17:55;7.80;99.90
24035;DHT22;12242;50.952;4.678;2023-02-01T02:20:35;7.80;99.90
24035;DHT22;12242;50.952;4.678;2023-02-01T02:23:21;7.70;99.90
24035;DHT22;12242;50.952;4.678;2023-02-01T02:26:25;7.60;99.90
24035;DHT22;12242;50.952;4.678;2023-02-01T02:39:51;7.20;99.90
24035;DHT22;12242;50.952;4.678;2023-02-01T02:48:35;7.10;99.90
24035;DHT22;12242;50.952;4.678;2023-02-01T02:54:15;7.00;99.90
24035;DHT22;12242;50.952;4.678;2023-02-01T02:57:06;6.90;99.90
24035;DHT22;12242;50.952;4.678;2023-02-01T02:59:53;7.00;99.90
24035;DHT22;12242;50.952;4.678;2023-02-01T03:02:41;7.00;99.90
24035;DHT22;12242;50.952;4.678;2023-02-01T03:05:35;6.80;99.90
24035;DHT22;12242;50.952;4.678;2023-02-01T03:08:16;6.90;99.90
24035;DHT22;12242;50.952;4.678;2023-02-01T03:13:56;6.90;99.90
24035;DHT22;12242;50.952;4.678;2023-02-01T03:16:39;6.90;99.90
24035;DHT22;12242;50.952;4.678;2023-02-01T03:19:09;7.00;99.90
24035;DHT22;12242;50.952;4.678;2023-02-01T03:21:48;7.00;99.90
24035;DHT22;12242;50.952;4.678;2023-02-01T03:32:25;7.00;99.90
24035;DHT22;12242;50.952;4.678;2023-02-01T03:34:53;7.00;99.90
24035;DHT22;12242;50.952;4.678;2023-02-01T03:37:26;7.00;99.90
24035;DHT22;12242;50.952;4.678;2023-02-01T03:39:59;7.00;99.90
24035;DHT22;12242;50.952;4.678;2023-02-01T03:42:48;6.90;99.90
24035;DHT22;12242;50.952;4.678;2023-02-01T03:45:24;6.90;99.90
24035;DHT22;12242;50.952;4.678;2023-02-01T03:47:58;6.90;99.90
24035;DHT22;12242;50.952;4.678;2023-02-01T03:50:28;6.90;99.90
24035;DHT22;12242;50.952;4.678;2023-02-01T03:53:09;6.90;99.90
24035;DHT22;12242;50.952;4.678;2023-02-01T03:55:38;6.90;99.90
24035;DHT22;12242;50.952;4.678;2023-02-01T03:58:21;7.00;99.90
24035;DHT22;12242;50.952;4.678;2023-02-01T04:00:58;6.90;99.90
24035;DHT22;12242;50.952;4.678;2023-02-01T04:03:27;6.90;99.90
24035;DHT22;12242;50.952;4.678;2023-02-01T04:05:54;6.90;99.90
24035;DHT22;12242;50.952;4.678;2023-02-01T04:08:22;6.90;99.90
24035;DHT22;12242;50.952;4.678;2023-02-01T04:10:52;6.80;99.90
24035;DHT22;12242;50.952;4.678;2023-02-01T04:13:19;6.80;99.90
24035;DHT22;12242;50.952;4.678;2023-02-01T04:15:47;6.80;99.90
24035;DHT22;12242;50.952;4.678;2023-02-01T04:18:17;6.80;99.90
24035;DHT22;12242;50.952;4.678;2023-02-01T04:20:44;6.80;99.90
24035;DHT22;12242;50.952;4.678;2023-02-01T04:23:12;6.70;99.90
24035;DHT22;12242;50.952;4.678;2023-02-01T04:25:41;6.70;99.90
24035;DHT22;12242;50.952;4.678;2023-02-01T04:28:09;6.70;99.90
24035;DHT22;12242;50.952;4.678;2023-02-01T04:30:36;6.70;99.90
24035;DHT22;12242;50.952;4.678;2023-02-01T04:33:03;6.70;99.90
24035;DHT22;12242;50.952;4.678;2023-02-01T04:35:34;6.60;99.90
24035;DHT22;12242;50.952;4.678;2023-02-01T04:38:02;6.60;99.90
24035;DHT22;12242;50.952;4.678;2023-02-01T04:40:29;6.60;99.90
24035;DHT22;12242;50.952;4.678;2023-02-01T04:42:58;6.60;99.90
24035;DHT22;12242;50.952;4.678;2023-02-01T04:45:29;6.50;99.90
24035;DHT22;12242;50.952;4.678;2023-02-01T04:47:56;6.60;99.90
24035;DHT22;12242;50.952;4.678;2023-02-01T04:50:26;6.60;99.90
24035;DHT22;12242;50.952;4.678;2023-02-01T04:52:53;6.50;99.90
24035;DHT22;12242;50.952;4.678;2023-02-01T04:55:21;6.60;99.90
24035;DHT22;12242;50.952;4.678;2023-02-01T04:57:53;6.50;99.90
24035;DHT22;12242;50.952;4.678;2023-02-01T05:00:23;6.50;99.90
24035;DHT22;12242;50.952;4.678;2023-02-01T05:02:55;6.60;99.90
24035;DHT22;12242;50.952;4.678;2023-02-01T05:05:28;6.50;99.90
24035;DHT22;12242;50.952;4.678;2023-02-01T05:07:56;6.50;99.90
24035;DHT22;12242;50.952;4.678;2023-02-01T05:10:23;6.50;99.90
24035;DHT22;12242;50.952;4.678;2023-02-01T05:12:51;6.50;99.90
24035;DHT22;12242;50.952;4.678;2023-02-01T05:15:41;6.50;99.90
24035;DHT22;12242;50.952;4.678;2023-02-01T05:18:08;6.40;99.90
24035;DHT22;12242;50.952;4.678;2023-02-01T05:20:38;6.40;99.90
24035;DHT22;12242;50.952;4.678;2023-02-01T05:23:10;6.40;99.90
24035;DHT22;12242;50.952;4.678;2023-02-01T05:25:37;6.40;99.90
24035;DHT22;12242;50.952;4.678;2023-02-01T05:28:07;6.40;99.90
24035;DHT22;12242;50.952;4.678;2023-02-01T05:30:36;6.30;99.90
24035;DHT22;12242;50.952;4.678;2023-02-01T05:33:07;6.40;99.90
24035;DHT22;12242;50.952;4.678;2023-02-01T05:35:39;6.40;99.90
24035;DHT22;12242;50.952;4.678;2023-02-01T05:38:07;6.40;99.90
24035;DHT22;12242;50.952;4.678;2023-02-01T05:40:34;6.30;99.90
24035;DHT22;12242;50.952;4.678;2023-02-01T05:43:01;6.20;99.90
24035;DHT22;12242;50.952;4.678;2023-02-01T05:45:31;6.30;99.90
24035;DHT22;12242;50.952;4.678;2023-02-01T05:47:58;6.30;99.90
24035;DHT22;12242;50.952;4.678;2023-02-01T05:50:26;6.20;99.90
24035;DHT22;12242;50.952;4.678;2023-02-01T05:52:55;6.30;99.90
24035;DHT22;12242;50.952;4.678;2023-02-01T05:55:22;6.20;99.90
24035;DHT22;12242;50.952;4.678;2023-02-01T05:57:52;6.20;99.90
24035;DHT22;12242;50.952;4.678;2023-02-01T06:00:20;6.20;99.90
24035;DHT22;12242;50.952;4.678;2023-02-01T06:02:48;6.20;99.90
24035;DHT22;12242;50.952;4.678;2023-02-01T06:05:15;6.10;99.90
24035;DHT22;12242;50.952;4.678;2023-02-01T06:07:45;6.00;99.90
24035;DHT22;12242;50.952;4.678;2023-02-01T06:10:16;6.00;99.90
24035;DHT22;12242;50.952;4.678;2023-02-01T06:12:45;6.00;99.90
24035;DHT22;12242;50.952;4.678;2023-02-01T06:15:18;5.90;99.90
24035;DHT22;12242;50.952;4.678;2023-02-01T06:17:45;5.90;99.90
24035;DHT22;12242;50.952;4.678;2023-02-01T06:20:14;6.00;99.90
24035;DHT22;12242;50.952;4.678;2023-02-01T06:22:41;6.00;99.90
24035;DHT22;12242;50.952;4.678;2023-02-01T06:25:10;6.00;99.90
24035;DHT22;12242;50.952;4.678;2023-02-01T06:27:37;5.90;99.90
24035;DHT22;12242;50.952;4.678;2023-02-01T06:30:06;5.90;99.90
24035;DHT22;12242;50.952;4.678;2023-02-01T06:32:33;5.90;99.90
24035;DHT22;12242;50.952;4.678;2023-02-01T06:35:00;5.90;99.90
24035;DHT22;12242;50.952;4.678;2023-02-01T06:37:28;5.90;99.90
24035;DHT22;12242;50.952;4.678;2023-02-01T06:39:56;6.00;99.90
24035;DHT22;12242;50.952;4.678;2023-02-01T06:42:26;6.00;99.90
24035;DHT22;12242;50.952;4.678;2023-02-01T06:44:53;6.10;99.90
24035;DHT22;12242;50.952;4.678;2023-02-01T06:47:20;6.00;99.90
24035;DHT22;12242;50.952;4.678;2023-02-01T06:49:49;6.00;99.90
24035;DHT22;12242;50.952;4.678;2023-02-01T06:52:18;6.10;99.90
24035;DHT22;12242;50.952;4.678;2023-02-01T06:54:47;6.10;99.90
24035;DHT22;12242;50.952;4.678;2023-02-01T06:57:15;6.10;99.90
24035;DHT22;12242;50.952;4.678;2023-02-01T06:59:42;6.10;99.90
24035;DHT22;12242;50.952;4.678;2023-02-01T07:02:11;6.10;99.90
24035;DHT22;12242;50.952;4.678;2023-02-01T07:04:38;6.10;99.90
24035;DHT22;12242;50.952;4.678;2023-02-01T07:07:05;6.10;99.90
24035;DHT22;12242;50.952;4.678;2023-02-01T07:09:37;6.10;99.90
24035;DHT22;12242;50.952;4.678;2023-02-01T07:12:05;6.00;99.90
24035;DHT22;12242;50.952;4.678;2023-02-01T07:14:32;6.10;99.90
24035;DHT22;12242;50.952;4.678;2023-02-01T07:17:01;6.10;99.90
24035;DHT22;12242;50.952;4.678;2023-02-01T07:19:29;6.00;99.90
24035;DHT22;12242;50.952;4.678;2023-02-01T07:21:59;6.10;99.90
24035;DHT22;12242;50.952;4.678;2023-02-01T07:24:26;6.00;99.90
24035;DHT22;12242;50.952;4.678;2023-02-01T07:26:59;6.00;99.90
24035;DHT22;12242;50.952;4.678;2023-02-01T07:29:29;6.10;99.90
24035;DHT22;12242;50.952;4.678;2023-02-01T07:32:01;6.10;99.90
24035;DHT22;12242;50.952;4.678;2023-02-01T07:34:29;6.00;99.90
24035;DHT22;12242;50.952;4.678;2023-02-01T07:36:57;6.00;99.90
24035;DHT22;12242;50.952;4.678;2023-02-01T07:39:27;6.10;99.90
24035;DHT22;12242;50.952;4.678;2023-02-01T07:41:57;6.10;99.90
24035;DHT22;12242;50.952;4.678;2023-02-01T07:44:25;6.10;99.90
24035;DHT22;12242;50.952;4.678;2023-02-01T07:46:52;6.20;99.90
24035;DHT22;12242;50.952;4.678;2023-02-01T07:49:22;6.20;99.90
24035;DHT22;12242;50.952;4.678;2023-02-01T07:51:52;6.20;99.90
24035;DHT22;12242;50.952;4.678;2023-02-01T07:54:19;6.30;99.90
24035;DHT22;12242;50.952;4.678;2023-02-01T07:56:49;6.30;99.90
24035;DHT22;12242;50.952;4.678;2023-02-01T07:59:16;6.40;99.90
24035;DHT22;12242;50.952;4.678;2023-02-01T08:01:43;6.40;99.90
24035;DHT22;12242;50.952;4.678;2023-02-01T08:04:13;6.50;99.90
24035;DHT22;12242;50.952;4.678;2023-02-01T08:06:41;6.60;99.90
24035;DHT22;12242;50.952;4.678;2023-02-01T08:09:08;6.70;99.90
24035;DHT22;12242;50.952;4.678;2023-02-01T08:11:40;6.80;99.90
24035;DHT22;12242;50.952;4.678;2023-02-01T08:14:07;6.80;99.90
24035;DHT22;12242;50.952;4.678;2023-02-01T08:16:34;6.90;99.90
24035;DHT22;12242;50.952;4.678;2023-02-01T08:19:04;7.00;99.90
24035;DHT22;12242;50.952;4.678;2023-02-01T08:21:31;7.00;99.90
24035;DHT22;12242;50.952;4.678;2023-02-01T08:24:08;7.00;99.90
24035;DHT22;12242;50.952;4.678;2023-02-01T08:26:38;7.10;99.90
24035;DHT22;12242;50.952;4.678;2023-02-01T08:29:07;7.10;99.90
24035;DHT22;12242;50.952;4.678;2023-02-01T08:31:35;7.10;99.90
24035;DHT22;12242;50.952;4.678;2023-02-01T08:34:03;7.20;99.90
24035;DHT22;12242;50.952;4.678;2023-02-01T08:36:35;7.20;99.90
24035;DHT22;12242;50.952;4.678;2023-02-01T08:39:05;7.20;99.90
24035;DHT22;12242;50.952;4.678;2023-02-01T08:41:38;7.30;99.90
24035;DHT22;12242;50.952;4.678;2023-02-01T08:44:09;7.20;99.90
24035;DHT22;12242;50.952;4.678;2023-02-01T08:46:41;7.30;99.90
24035;DHT22;12242;50.952;4.678;2023-02-01T08:49:08;7.30;99.90
24035;DHT22;12242;50.952;4.678;2023-02-01T08:51:38;7.30;99.90
24035;DHT22;12242;50.952;4.678;2023-02-01T08:54:05;7.40;99.90
24035;DHT22;12242;50.952;4.678;2023-02-01T08:56:34;7.50;99.90
24035;DHT22;12242;50.952;4.678;2023-02-01T08:59:02;7.50;99.90
24035;DHT22;12242;50.952;4.678;2023-02-01T09:01:29;7.60;99.90
24035;DHT22;12242;50.952;4.678;2023-02-01T09:03:59;7.60;99.90
24035;DHT22;12242;50.952;4.678;2023-02-01T09:06:28;7.70;99.90
24035;DHT22;12242;50.952;4.678;2023-02-01T09:09:01;7.80;99.90
24035;DHT22;12242;50.952;4.678;2023-02-01T09:11:28;7.80;99.90
24035;DHT22;12242;50.952;4.678;2023-02-01T09:13:55;7.90;99.90
24035;DHT22;12242;50.952;4.678;2023-02-01T09:16:23;8.10;99.90
24035;DHT22;12242;50.952;4.678;2023-02-01T09:18:50;8.50;99.90
24035;DHT22;12242;50.952;4.678;2023-02-01T09:21:38;8.90;99.90
24035;DHT22;12242;50.952;4.678;2023-02-01T09:24:08;9.50;99.90
24035;DHT22;12242;50.952;4.678;2023-02-01T09:26:42;10.00;99.90
24035;DHT22;12242;50.952;4.678;2023-02-01T09:29:09;10.40;99.90
24035;DHT22;12242;50.952;4.678;2023-02-01T09:31:40;10.50;99.90
24035;DHT22;12242;50.952;4.678;2023-02-01T09:34:15;10.30;99.90
24035;DHT22;12242;50.952;4.678;2023-02-01T09:36:42;10.30;99.90
24035;DHT22;12242;50.952;4.678;2023-02-01T09:39:10;10.50;99.90
24035;DHT22;12242;50.952;4.678;2023-02-01T09:47:28;11.10;99.90
24035;DHT22;12242;50.952;4.678;2023-02-01T09:50:10;11.50;99.90
24035;DHT22;12242;50.952;4.678;2023-02-01T09:52:40;11.40;99.90
24035;DHT22;12242;50.952;4.678;2023-02-01T09:55:19;11.50;99.90
24035;DHT22;12242;50.952;4.678;2023-02-01T09:57:54;11.60;99.90
24035;DHT22;12242;50.952;4.678;2023-02-01T10:00:27;11.70;99.90
24035;DHT22;12242;50.952;4.678;2023-02-01T10:02:56;12.30;99.90
24035;DHT22;12242;50.952;4.678;2023-02-01T10:17:04;14.00;99.90
24035;DHT22;12242;50.952;4.678;2023-02-01T10:22:46;13.80;99.90
24035;DHT22;12242;50.952;4.678;2023-02-01T10:25:41;13.80;99.90
24035;DHT22;12242;50.952;4.678;2023-02-01T10:28:16;14.20;99.90
24035;DHT22;12242;50.952;4.678;2023-02-01T10:30:49;14.80;99.90
24035;DHT22;12242;50.952;4.678;2023-02-01T10:33:30;14.90;99.90
24035;DHT22;12242;50.952;4.678;2023-02-01T10:36:21;14.60;99.90
24035;DHT22;12242;50.952;4.678;2023-02-01T10:38:50;15.00;99.90
24035;DHT22;12242;50.952;4.678;2023-02-01T10:41:23;15.50;99.90
24035;DHT22;12242;50.952;4.678;2023-02-01T10:43:57;15.90;99.20
24035;DHT22;12242;50.952;4.678;2023-02-01T10:46:27;15.20;99.90
24035;DHT22;12242;50.952;4.678;2023-02-01T10:48:56;15.10;99.50
24035;DHT22;12242;50.952;4.678;2023-02-01T10:51:36;15.20;99.70
24035;DHT22;12242;50.952;4.678;2023-02-01T10:54:22;15.10;99.60
24035;DHT22;12242;50.952;4.678;2023-02-01T10:56:50;14.40;99.90
24035;DHT22;12242;50.952;4.678;2023-02-01T10:59:24;14.70;99.90
24035;DHT22;12242;50.952;4.678;2023-02-01T11:01:59;15.20;99.90
24035;DHT22;12242;50.952;4.678;2023-02-01T11:04:35;15.70;99.90
24035;DHT22;12242;50.952;4.678;2023-02-01T11:07:19;15.20;99.10
24035;DHT22;12242;50.952;4.678;2023-02-01T11:09:53;14.80;99.70
24035;DHT22;12242;50.952;4.678;2023-02-01T11:12:36;14.00;99.90
24035;DHT22;12242;50.952;4.678;2023-02-01T11:15:19;14.60;99.90
24035;DHT22;12242;50.952;4.678;2023-02-01T11:17:48;14.40;99.90
24035;DHT22;12242;50.952;4.678;2023-02-01T11:22:59;13.40;99.90
24035;DHT22;12242;50.952;4.678;2023-02-01T11:25:27;13.20;99.90
24035;DHT22;12242;50.952;4.678;2023-02-01T11:27:55;13.00;99.90
24035;DHT22;12242;50.952;4.678;2023-02-01T11:30:36;13.30;99.90
24035;DHT22;12242;50.952;4.678;2023-02-01T11:33:05;13.00;99.90
24035;DHT22;12242;50.952;4.678;2023-02-01T11:35:40;12.80;99.90
24035;DHT22;12242;50.952;4.678;2023-02-01T11:40:48;12.70;99.90
24035;DHT22;12242;50.952;4.678;2023-02-01T11:43:28;12.20;99.90
24035;DHT22;12242;50.952;4.678;2023-02-01T11:46:01;12.20;99.90
24035;DHT22;12242;50.952;4.678;2023-02-01T11:48:33;12.70;99.90
24035;DHT22;12242;50.952;4.678;2023-02-01T11:51:49;13.00;99.90
24035;DHT22;12242;50.952;4.678;2023-02-01T11:59:45;14.30;99.90
24035;DHT22;12242;50.952;4.678;2023-02-01T12:08:29;13.40;99.90
24035;DHT22;12242;50.952;4.678;2023-02-01T12:14:18;13.10;99.90
24035;DHT22;12242;50.952;4.678;2023-02-01T12:16:56;13.30;99.90
24035;DHT22;12242;50.952;4.678;2023-02-01T12:22:27;12.80;99.90
24035;DHT22;12242;50.952;4.678;2023-02-01T12:27:38;11.90;99.90
24035;DHT22;12242;50.952;4.678;2023-02-01T12:30:39;11.70;99.90
24035;DHT22;12242;50.952;4.678;2023-02-01T12:42:20;11.60;99.90
24035;DHT22;12242;50.952;4.678;2023-02-01T12:47:55;11.10;99.90
24035;DHT22;12242;50.952;4.678;2023-02-01T12:50:38;10.90;99.90
24035;DHT22;12242;50.952;4.678;2023-02-01T12:53:15;10.80;99.90
24035;DHT22;12242;50.952;4.678;2023-02-01T12:55:54;10.60;99.90
24035;DHT22;12242;50.952;4.678;2023-02-01T12:58:32;10.50;99.90
24035;DHT22;12242;50.952;4.678;2023-02-01T13:01:07;10.50;99.90
24035;DHT22;12242;50.952;4.678;2023-02-01T13:06:33;10.80;99.90
24035;DHT22;12242;50.952;4.678;2023-02-01T13:09:22;10.90;99.90
24035;DHT22;12242;50.952;4.678;2023-02-01T13:11:53;10.80;99.90
24035;DHT22;12242;50.952;4.678;2023-02-01T13:14:37;10.60;99.90
24035;DHT22;12242;50.952;4.678;2023-02-01T13:17:14;10.50;99.90
24035;DHT22;12242;50.952;4.678;2023-02-01T13:19:56;10.50;99.90
24035;DHT22;12242;50.952;4.678;2023-02-01T13:22:31;10.60;99.90
24035;DHT22;12242;50.952;4.678;2023-02-01T13:28:03;10.70;99.90
24035;DHT22;12242;50.952;4.678;2023-02-01T13:31:00;10.70;99.90
24035;DHT22;12242;50.952;4.678;2023-02-01T13:42:34;10.80;99.90
24035;DHT22;12242;50.952;4.678;2023-02-01T13:45:14;10.80;99.90
24035;DHT22;12242;50.952;4.678;2023-02-01T13:47:44;10.70;99.90
24035;DHT22;12242;50.952;4.678;2023-02-01T13:50:16;10.70;99.90
24035;DHT22;12242;50.952;4.678;2023-02-01T13:53:30;10.60;99.90
24035;DHT22;12242;50.952;4.678;2023-02-01T13:56:15;10.60;99.90
24035;DHT22;12242;50.952;4.678;2023-02-01T13:58:47;10.50;99.90
24035;DHT22;12242;50.952;4.678;2023-02-01T14:03:53;10.50;99.90
24035;DHT22;12242;50.952;4.678;2023-02-01T14:11:52;10.40;99.90
24035;DHT22;12242;50.952;4.678;2023-02-01T14:19:29;10.40;99.90
24035;DHT22;12242;50.952;4.678;2023-02-01T14:22:00;10.40;99.90
24035;DHT22;12242;50.952;4.678;2023-02-01T14:24:55;10.40;99.90
24035;DHT22;12242;50.952;4.678;2023-02-01T14:27:30;10.30;99.90
24035;DHT22;12242;50.952;4.678;2023-02-01T14:30:05;10.30;99.90
24035;DHT22;12242;50.952;4.678;2023-02-01T14:32:37;10.40;99.90
24035;DHT22;12242;50.952;4.678;2023-02-01T14:35:12;10.30;99.90
24035;DHT22;12242;50.952;4.678;2023-02-01T14:37:44;10.40;99.90
24035;DHT22;12242;50.952;4.678;2023-02-01T14:47:55;10.30;99.90
24035;DHT22;12242;50.952;4.678;2023-02-01T14:50:46;10.30;99.90
24035;DHT22;12242;50.952;4.678;2023-02-01T14:53:20;10.30;99.90
24035;DHT22;12242;50.952;4.678;2023-02-01T15:08:59;10.20;99.90
24035;DHT22;12242;50.952;4.678;2023-02-01T15:11:28;10.10;99.90
24035;DHT22;12242;50.952;4.678;2023-02-01T15:13:55;10.00;99.90
24035;DHT22;12242;50.952;4.678;2023-02-01T15:16:25;10.00;99.90
24035;DHT22;12242;50.952;4.678;2023-02-01T15:19:10;10.00;99.90
24035;DHT22;12242;50.952;4.678;2023-02-01T15:21:52;9.90;99.90
24035;DHT22;12242;50.952;4.678;2023-02-01T15:24:30;9.90;99.90
24035;DHT22;12242;50.952;4.678;2023-02-01T15:27:04;9.90;99.90
24035;DHT22;12242;50.952;4.678;2023-02-01T15:29:35;9.90;99.90
24035;DHT22;12242;50.952;4.678;2023-02-01T15:32:02;10.00;99.90
24035;DHT22;12242;50.952;4.678;2023-02-01T15:34:49;9.90;99.90
24035;DHT22;12242;50.952;4.678;2023-02-01T15:37:21;9.90;99.90
24035;DHT22;12242;50.952;4.678;2023-02-01T15:40:20;9.90;99.90
24035;DHT22;12242;50.952;4.678;2023-02-01T15:42:54;9.90;99.90
24035;DHT22;12242;50.952;4.678;2023-02-01T15:45:26;10.00;99.90
24035;DHT22;12242;50.952;4.678;2023-02-01T15:47:57;9.90;99.90
24035;DHT22;12242;50.952;4.678;2023-02-01T15:50:28;9.90;99.90
24035;DHT22;12242;50.952;4.678;2023-02-01T15:52:57;9.80;99.90
24035;DHT22;12242;50.952;4.678;2023-02-01T15:55:39;9.80;99.90
24035;DHT22;12242;50.952;4.678;2023-02-01T15:58:18;9.80;99.90
24035;DHT22;12242;50.952;4.678;2023-02-01T16:00:59;9.80;99.90
24035;DHT22;12242;50.952;4.678;2023-02-01T16:03:36;9.70;99.90
24035;DHT22;12242;50.952;4.678;2023-02-01T16:06:07;9.70;99.90
24035;DHT22;12242;50.952;4.678;2023-02-01T16:08:35;9.70;99.90
24035;DHT22;12242;50.952;4.678;2023-02-01T16:11:14;9.70;99.90
24035;DHT22;12242;50.952;4.678;2023-02-01T16:13:46;9.60;99.90
24035;DHT22;12242;50.952;4.678;2023-02-01T16:16:13;9.60;99.90
24035;DHT22;12242;50.952;4.678;2023-02-01T16:18:41;9.60;99.90
24035;DHT22;12242;50.952;4.678;2023-02-01T16:21:09;9.60;99.90
24035;DHT22;12242;50.952;4.678;2023-02-01T16:23:38;9.60;99.90
24035;DHT22;12242;50.952;4.678;2023-02-01T16:26:10;9.70;99.90
24035;DHT22;12242;50.952;4.678;2023-02-01T16:28:38;9.70;99.90
24035;DHT22;12242;50.952;4.678;2023-02-01T16:31:08;9.80;99.90
24035;DHT22;12242;50.952;4.678;2023-02-01T16:33:39;9.70;99.90
24035;DHT22;12242;50.952;4.678;2023-02-01T16:36:10;9.70;99.90
24035;DHT22;12242;50.952;4.678;2023-02-01T16:38:37;9.70;99.90
24035;DHT22;12242;50.952;4.678;2023-02-01T16:41:13;9.60;99.90
24035;DHT22;12242;50.952;4.678;2023-02-01T16:43:43;9.70;99.90
24035;DHT22;12242;50.952;4.678;2023-02-01T16:46:14;9.60;99.90
24035;DHT22;12242;50.952;4.678;2023-02-01T16:48:46;9.60;99.90
24035;DHT22;12242;50.952;4.678;2023-02-01T16:51:18;9.60;99.90
24035;DHT22;12242;50.952;4.678;2023-02-01T16:53:46;9.60;99.90
24035;DHT22;12242;50.952;4.678;2023-02-01T16:56:22;9.70;99.90
24035;DHT22;12242;50.952;4.678;2023-02-01T16:58:50;9.70;99.90
24035;DHT22;12242;50.952;4.678;2023-02-01T17:01:20;9.70;99.90
24035;DHT22;12242;50.952;4.678;2023-02-01T17:03:48;9.60;99.90
24035;DHT22;12242;50.952;4.678;2023-02-01T17:06:21;9.60;99.90
24035;DHT22;12242;50.952;4.678;2023-02-01T17:08:52;9.60;99.90
24035;DHT22;12242;50.952;4.678;2023-02-01T17:11:20;9.60;99.90
24035;DHT22;12242;50.952;4.678;2023-02-01T17:13:50;9.60;99.90
24035;DHT22;12242;50.952;4.678;2023-02-01T17:18:55;9.60;99.90
24035;DHT22;12242;50.952;4.678;2023-02-01T17:21:24;9.60;99.90
24035;DHT22;12242;50.952;4.678;2023-02-01T17:23:55;9.50;99.90
24035;DHT22;12242;50.952;4.678;2023-02-01T17:26:27;9.50;99.90
24035;DHT22;12242;50.952;4.678;2023-02-01T17:28:54;9.50;99.90
24035;DHT22;12242;50.952;4.678;2023-02-01T17:31:22;9.50;99.90
24035;DHT22;12242;50.952;4.678;2023-02-01T17:33:50;9.50;99.90
24035;DHT22;12242;50.952;4.678;2023-02-01T17:36:17;9.50;99.90
24035;DHT22;12242;50.952;4.678;2023-02-01T17:38:45;9.60;99.90
24035;DHT22;12242;50.952;4.678;2023-02-01T17:41:29;9.50;99.90
24035;DHT22;12242;50.952;4.678;2023-02-01T17:43:57;9.60;99.90
24035;DHT22;12242;50.952;4.678;2023-02-01T17:46:26;9.50;99.90
24035;DHT22;12242;50.952;4.678;2023-02-01T17:48:56;9.60;99.90
24035;DHT22;12242;50.952;4.678;2023-02-01T17:51:29;9.50;99.90
24035;DHT22;12242;50.952;4.678;2023-02-01T17:53:56;9.50;99.90
24035;DHT22;12242;50.952;4.678;2023-02-01T17:56:24;9.50;99.90
24035;DHT22;12242;50.952;4.678;2023-02-01T17:58:54;9.50;99.90
24035;DHT22;12242;50.952;4.678;2023-02-01T18:01:23;9.60;99.90
24035;DHT22;12242;50.952;4.678;2023-02-01T18:03:53;9.70;99.90
24035;DHT22;12242;50.952;4.678;2023-02-01T18:06:22;9.60;99.90
24035;DHT22;12242;50.952;4.678;2023-02-01T18:08:50;9.70;99.90
24035;DHT22;12242;50.952;4.678;2023-02-01T18:11:24;9.60;99.90
24035;DHT22;12242;50.952;4.678;2023-02-01T18:13:52;9.60;99.90
24035;DHT22;12242;50.952;4.678;2023-02-01T18:18:50;9.50;99.90
24035;DHT22;12242;50.952;4.678;2023-02-01T18:21:21;9.50;99.90
24035;DHT22;12242;50.952;4.678;2023-02-01T18:23:48;9.40;99.90
24035;DHT22;12242;50.952;4.678;2023-02-01T18:26:17;9.40;99.90
24035;DHT22;12242;50.952;4.678;2023-02-01T18:28:47;9.30;99.90
24035;DHT22;12242;50.952;4.678;2023-02-01T18:31:21;9.30;99.90
24035;DHT22;12242;50.952;4.678;2023-02-01T18:33:50;9.20;99.90
24035;DHT22;12242;50.952;4.678;2023-02-01T18:36:23;9.30;99.90
24035;DHT22;12242;50.952;4.678;2023-02-01T18:38:51;9.20;99.90
24035;DHT22;12242;50.952;4.678;2023-02-01T18:41:23;9.30;99.90
24035;DHT22;12242;50.952;4.678;2023-02-01T18:43:51;9.40;99.90